createdAt,value
2023-04-15T00:01:47.626Z,9.18
2023-04-15T00:04:14.113Z,8.35
2023-04-15T00:06:40.501Z,8.20
2023-04-15T00:09:06.862Z,7.70
2023-04-15T00:11:33.141Z,9.20
2023-04-15T00:13:59.433Z,8.98
2023-04-15T00:16:25.815Z,9.52
2023-04-15T00:18:52.206Z,7.35
2023-04-15T00:21:18.529Z,8.70
2023-04-15T00:23:44.817Z,8.60
2023-04-15T00:26:11.174Z,7.18
2023-04-15T00:28:37.531Z,9.10
2023-04-15T00:31:03.826Z,7.32
2023-04-15T00:33:30.120Z,9.00
2023-04-15T00:35:56.506Z,7.78
2023-04-15T00:38:22.798Z,7.63
2023-04-15T00:40:49.357Z,7.47
2023-04-15T00:43:15.651Z,8.38
2023-04-15T00:45:41.934Z,8.80
2023-04-15T00:48:08.387Z,7.55
2023-04-15T00:50:34.819Z,8.77
2023-04-15T00:53:01.217Z,8.93
2023-04-15T00:55:27.506Z,6.28
2023-04-15T00:57:54.650Z,8.63
2023-04-15T01:00:21.221Z,8.70
2023-04-15T01:02:47.744Z,8.20
2023-04-15T01:05:14.193Z,7.03
2023-04-15T01:07:40.446Z,8.50
2023-04-15T01:10:07.370Z,6.85
2023-04-15T01:12:33.944Z,7.80
2023-04-15T01:15:00.891Z,7.22
2023-04-15T01:17:27.565Z,6.50
2023-04-15T01:19:56.316Z,7.43
2023-04-15T01:22:24.099Z,7.68
2023-04-15T01:25:17.546Z,7.82
2023-04-15T01:27:44.085Z,6.90
2023-04-15T01:30:11.058Z,7.18
2023-04-15T01:32:38.113Z,7.25
2023-04-15T01:35:04.724Z,7.65
2023-04-15T01:37:31.195Z,6.68
2023-04-15T01:39:57.517Z,7.70
2023-04-15T01:42:24.159Z,7.70
2023-04-15T01:44:50.524Z,7.13
2023-04-15T01:47:16.796Z,6.40
2023-04-15T01:49:43.088Z,8.60
2023-04-15T01:52:09.361Z,8.57
2023-04-15T01:54:35.624Z,6.82
2023-04-15T01:57:01.893Z,7.45
2023-04-15T01:59:29.045Z,7.07
2023-04-15T02:01:55.326Z,7.68
2023-04-15T02:04:21.670Z,8.00
2023-04-15T02:06:47.994Z,8.75
2023-04-15T02:09:14.362Z,8.68
2023-04-15T02:11:40.625Z,8.20
2023-04-15T02:14:06.935Z,8.10
2023-04-15T02:16:33.522Z,7.50
2023-04-15T02:19:00.623Z,7.80
2023-04-15T02:21:27.340Z,7.72
2023-04-15T02:23:54.119Z,8.80
2023-04-15T02:26:20.539Z,7.78
2023-04-15T02:28:47.136Z,8.48
2023-04-15T02:31:13.493Z,9.10
2023-04-15T02:33:40.192Z,7.57
2023-04-15T02:36:06.550Z,7.43
2023-04-15T02:38:32.868Z,7.85
2023-04-15T02:40:59.169Z,8.00
2023-04-15T02:43:25.450Z,7.40
2023-04-15T02:45:51.845Z,6.03
2023-04-15T02:48:18.179Z,7.97
2023-04-15T02:50:44.489Z,7.90
2023-04-15T02:53:10.841Z,6.68
2023-04-15T02:55:37.240Z,8.75
2023-04-15T02:58:03.524Z,6.18
2023-04-15T03:00:30.040Z,6.53
2023-04-15T03:03:04.371Z,6.70
2023-04-15T03:05:31.266Z,6.55
2023-04-15T03:07:57.532Z,7.13
2023-04-15T03:10:23.857Z,8.63
2023-04-15T03:12:50.205Z,7.03
2023-04-15T03:15:17.211Z,7.43
2023-04-15T03:17:43.697Z,6.55
2023-04-15T03:20:10.242Z,6.55
2023-04-15T03:22:36.592Z,6.72
2023-04-15T03:25:02.931Z,6.03
2023-04-15T03:27:29.203Z,6.68
2023-04-15T03:29:55.564Z,6.80
2023-04-15T03:32:21.830Z,6.70
2023-04-15T03:34:48.212Z,7.75
2023-04-15T03:37:14.474Z,7.53
2023-04-15T03:39:40.767Z,7.28
2023-04-15T03:42:07.037Z,6.03
2023-04-15T03:44:33.473Z,8.48
2023-04-15T03:46:59.847Z,7.25
2023-04-15T03:49:26.118Z,7.53
2023-04-15T03:51:52.428Z,5.32
2023-04-15T03:54:18.806Z,8.65
2023-04-15T03:56:45.107Z,7.15
2023-04-15T03:59:11.409Z,7.95
2023-04-15T04:01:37.843Z,8.05
2023-04-15T04:04:04.284Z,6.70
2023-04-15T04:06:30.696Z,7.72
2023-04-15T04:08:56.955Z,7.40
2023-04-15T04:11:23.343Z,7.35
2023-04-15T04:13:49.639Z,5.75
2023-04-15T04:16:16.000Z,7.95
2023-04-15T04:18:42.288Z,7.45
2023-04-15T04:21:08.601Z,8.40
2023-04-15T04:23:35.001Z,7.18
2023-04-15T04:26:01.288Z,7.75
2023-04-15T04:28:27.561Z,8.65
2023-04-15T04:30:54.019Z,7.00
2023-04-15T04:33:20.331Z,7.80
2023-04-15T04:35:46.595Z,6.93
2023-04-15T04:38:12.956Z,6.15
2023-04-15T04:40:39.311Z,7.43
2023-04-15T04:43:05.587Z,5.97
2023-04-15T04:45:31.903Z,6.03
2023-04-15T04:47:58.241Z,9.40
2023-04-15T04:50:24.692Z,7.05
2023-04-15T04:52:50.975Z,7.78
2023-04-15T04:55:17.268Z,7.10
2023-04-15T04:57:43.726Z,7.75
2023-04-15T05:00:10.788Z,8.32
2023-04-15T05:02:37.161Z,6.50
2023-04-15T05:05:03.670Z,7.18
2023-04-15T05:07:30.037Z,8.50
2023-04-15T05:09:56.316Z,8.73
2023-04-15T05:12:22.667Z,8.90
2023-04-15T05:14:48.979Z,8.63
2023-04-15T05:17:15.258Z,7.63
2023-04-15T05:19:41.635Z,8.35
2023-04-15T05:22:08.013Z,8.68
2023-04-15T05:24:34.290Z,8.38
2023-04-15T05:27:00.599Z,10.18
2023-04-15T05:29:26.861Z,9.07
2023-04-15T05:31:53.112Z,8.25
2023-04-15T05:34:19.396Z,9.50
2023-04-15T05:36:45.657Z,8.02
2023-04-15T05:39:12.105Z,9.80
2023-04-15T05:41:38.406Z,8.40
2023-04-15T05:44:04.848Z,10.35
2023-04-15T05:46:31.283Z,11.48
2023-04-15T05:48:57.589Z,10.80
2023-04-15T05:51:23.948Z,9.15
2023-04-15T05:53:50.332Z,10.35
2023-04-15T05:56:16.629Z,9.20
2023-04-15T05:58:42.911Z,8.25
2023-04-15T06:01:09.217Z,8.18
2023-04-15T06:03:35.791Z,7.60
2023-04-15T06:06:02.236Z,7.88
2023-04-15T06:08:28.606Z,7.80
2023-04-15T06:10:54.969Z,7.97
2023-04-15T06:13:21.317Z,7.38
2023-04-15T06:15:47.669Z,8.48
2023-04-15T06:18:14.053Z,7.70
2023-04-15T06:20:40.384Z,8.73
2023-04-15T06:23:06.646Z,7.85
2023-04-15T06:25:33.001Z,8.50
2023-04-15T06:27:59.509Z,7.97
2023-04-15T06:30:25.797Z,8.02
2023-04-15T06:32:52.264Z,9.18
2023-04-15T06:35:18.583Z,7.93
2023-04-15T06:37:44.849Z,9.07
2023-04-15T06:40:11.551Z,8.57
2023-04-15T06:42:37.806Z,8.23
2023-04-15T06:45:04.673Z,9.38
2023-04-15T06:47:31.058Z,9.45
2023-04-15T06:49:57.332Z,9.23
2023-04-15T06:52:23.637Z,8.98
2023-04-15T06:54:49.936Z,12.27
2023-04-15T06:57:16.220Z,8.88
2023-04-15T06:59:42.489Z,8.20
2023-04-15T07:02:12.026Z,7.75
2023-04-15T07:04:38.456Z,7.85
2023-04-15T07:07:04.760Z,9.90
2023-04-15T07:09:31.144Z,10.77
2023-04-15T07:11:57.487Z,6.80
2023-04-15T07:14:23.742Z,8.43
2023-04-15T07:16:50.309Z,7.97
2023-04-15T07:19:16.636Z,7.10
2023-04-15T07:21:42.920Z,6.88
2023-04-15T07:24:09.286Z,9.05
2023-04-15T07:26:35.665Z,7.25
2023-04-15T07:29:02.168Z,6.93
2023-04-15T07:31:28.739Z,8.63
2023-04-15T07:33:55.116Z,11.40
2023-04-15T07:36:21.395Z,9.18
2023-04-15T07:38:47.683Z,8.27
2023-04-15T07:41:14.051Z,9.50
2023-04-15T07:43:40.300Z,7.70
2023-04-15T07:46:06.565Z,8.05
2023-04-15T07:48:33.717Z,7.68
2023-04-15T07:51:00.797Z,11.55
2023-04-15T07:53:27.093Z,7.80
2023-04-15T07:55:53.380Z,7.00
2023-04-15T07:58:19.732Z,5.90
2023-04-15T08:00:46.115Z,7.55
2023-04-15T08:03:12.704Z,14.68
2023-04-15T08:05:39.047Z,7.15
2023-04-15T08:08:05.355Z,5.13
2023-04-15T08:10:31.746Z,7.53
2023-04-15T08:12:58.159Z,6.57
2023-04-15T08:15:25.816Z,5.60
2023-04-15T08:17:52.235Z,4.93
2023-04-15T08:20:18.771Z,5.70
2023-04-15T08:22:45.176Z,5.40
2023-04-15T08:25:11.459Z,7.13
2023-04-15T08:27:37.836Z,6.10
2023-04-15T08:30:05.182Z,6.00
2023-04-15T08:34:57.931Z,7.35
2023-04-15T08:37:24.259Z,6.03
2023-04-15T08:39:50.537Z,4.85
2023-04-15T08:42:19.456Z,5.13
2023-04-15T08:44:46.367Z,4.80
2023-04-15T08:47:14.071Z,5.15
2023-04-15T08:49:42.658Z,3.80
2023-04-15T08:52:09.436Z,4.85
2023-04-15T08:54:36.549Z,6.25
2023-04-15T08:57:03.278Z,3.45
2023-04-15T08:59:32.836Z,3.80
2023-04-15T09:01:59.392Z,3.05
2023-04-15T09:04:25.733Z,1.77
2023-04-15T09:06:52.013Z,2.47
2023-04-15T09:09:18.313Z,2.95
2023-04-15T09:11:44.686Z,2.47
2023-04-15T09:14:10.999Z,3.53
2023-04-15T09:16:57.219Z,5.95
2023-04-15T09:19:24.556Z,5.63
2023-04-15T09:21:53.962Z,2.67
2023-04-15T09:24:21.901Z,2.28
2023-04-15T09:26:53.529Z,1.55
2023-04-15T09:29:20.199Z,1.25
2023-04-15T09:31:46.552Z,1.75
2023-04-15T09:34:12.821Z,2.03
2023-04-15T09:36:59.632Z,1.73
2023-04-15T09:39:26.322Z,2.22
2023-04-15T09:42:05.191Z,2.95
2023-04-15T09:44:31.466Z,2.30
2023-04-15T09:46:57.747Z,2.38
2023-04-15T09:49:24.121Z,1.48
2023-04-15T09:52:04.019Z,2.28
2023-04-15T09:54:38.740Z,2.00
2023-04-15T09:57:06.290Z,3.50
2023-04-15T10:01:59.568Z,1.15
2023-04-15T10:04:27.409Z,1.67
2023-04-15T10:06:53.786Z,2.55
2023-04-15T10:09:20.322Z,2.35
2023-04-15T10:11:49.649Z,2.20
2023-04-15T10:14:16.684Z,2.05
2023-04-15T10:16:46.416Z,1.80
2023-04-15T10:19:13.261Z,2.88
2023-04-15T10:21:40.860Z,3.63
2023-04-15T10:24:07.357Z,4.28
2023-04-15T10:26:34.584Z,2.88
2023-04-15T10:29:01.294Z,2.80
2023-04-15T10:31:28.397Z,2.88
2023-04-15T10:33:55.170Z,5.93
2023-04-15T10:36:21.857Z,1.88
2023-04-15T10:38:48.142Z,3.28
2023-04-15T10:41:21.987Z,3.17
2023-04-15T10:43:56.728Z,4.03
2023-04-15T10:46:34.728Z,2.78
2023-04-15T10:49:07.774Z,4.30
2023-04-15T10:51:34.125Z,4.85
2023-04-15T10:54:00.618Z,4.43
2023-04-15T10:56:29.237Z,2.63
2023-04-15T10:58:55.552Z,4.43
2023-04-15T11:01:22.339Z,3.28
2023-04-15T11:03:48.808Z,3.72
2023-04-15T11:06:15.420Z,3.03
2023-04-15T11:08:55.301Z,4.03
2023-04-15T11:11:21.825Z,2.05
2023-04-15T11:13:50.222Z,3.30
2023-04-15T11:16:16.860Z,2.55
2023-04-15T11:18:53.972Z,2.00
2023-04-15T11:21:25.092Z,2.80
2023-04-15T11:23:51.430Z,2.60
2023-04-15T11:26:17.810Z,2.88
2023-04-15T11:28:45.794Z,3.08
2023-04-15T11:31:17.438Z,2.53
2023-04-15T11:33:54.022Z,3.75
2023-04-15T11:36:20.470Z,2.47
2023-04-15T11:38:47.689Z,4.82
2023-04-15T11:41:14.002Z,5.00
2023-04-15T11:43:40.339Z,3.58
2023-04-15T11:46:06.692Z,3.22
2023-04-15T11:48:35.522Z,2.55
2023-04-15T11:51:04.619Z,3.58
2023-04-15T11:53:39.926Z,2.95
2023-04-15T11:56:07.579Z,3.40
2023-04-15T11:58:36.104Z,2.67
2023-04-15T12:01:02.696Z,2.22
2023-04-15T12:03:31.262Z,3.25
2023-04-15T12:06:13.081Z,2.35
2023-04-15T12:09:04.448Z,4.75
2023-04-15T12:11:34.950Z,5.32
2023-04-15T12:14:27.376Z,3.22
2023-04-15T12:16:58.733Z,2.38
2023-04-15T12:19:35.188Z,3.60
2023-04-15T12:22:06.660Z,2.58
2023-04-15T12:24:34.287Z,3.38
2023-04-15T12:27:08.770Z,3.72
2023-04-15T12:29:37.542Z,2.92
2023-04-15T12:32:13.209Z,4.30
2023-04-15T12:34:42.150Z,5.10
2023-04-15T12:37:11.168Z,3.05
2023-04-15T12:39:39.117Z,2.45
2023-04-15T12:42:06.065Z,2.83
2023-04-15T12:44:33.409Z,3.45
2023-04-15T12:46:59.888Z,3.45
2023-04-15T12:49:27.127Z,4.80
2023-04-15T12:51:55.417Z,2.88
2023-04-15T12:54:21.968Z,3.92
2023-04-15T12:56:49.562Z,3.50
2023-04-15T12:59:16.858Z,2.95
2023-04-15T13:01:43.265Z,2.28
2023-04-15T13:04:10.693Z,3.38
2023-04-15T13:09:07.630Z,1.65
2023-04-15T13:11:34.972Z,2.20
2023-04-15T13:14:06.132Z,4.07
2023-04-15T13:16:33.777Z,1.88
2023-04-15T13:19:01.218Z,2.40
2023-04-15T13:21:27.856Z,2.83
2023-04-15T13:23:54.666Z,2.95
2023-04-15T13:26:21.276Z,2.63
2023-04-15T13:28:47.908Z,3.50
2023-04-15T13:31:14.284Z,2.88
2023-04-15T13:33:40.626Z,3.33
2023-04-15T13:36:06.912Z,2.58
2023-04-15T13:38:33.195Z,3.40
2023-04-15T13:40:59.596Z,2.97
2023-04-15T13:43:25.867Z,3.08
2023-04-15T13:45:52.242Z,2.25
2023-04-15T13:48:18.669Z,2.90
2023-04-15T13:50:44.957Z,2.22
2023-04-15T13:53:14.145Z,2.80
2023-04-15T13:55:40.593Z,2.80
2023-04-15T13:58:07.904Z,1.90
2023-04-15T14:00:34.398Z,1.85
2023-04-15T14:03:00.921Z,1.88
2023-04-15T14:05:27.361Z,2.40
2023-04-15T14:07:53.859Z,2.10
2023-04-15T14:10:20.345Z,2.63
2023-04-15T14:12:46.664Z,1.50
2023-04-15T14:15:13.049Z,2.40
2023-04-15T14:17:39.452Z,3.15
2023-04-15T14:20:07.835Z,2.13
2023-04-15T14:22:34.113Z,2.88
2023-04-15T14:25:00.487Z,3.22
2023-04-15T14:27:26.840Z,2.88
2023-04-15T14:29:53.158Z,3.70
2023-04-15T14:32:19.734Z,3.50
2023-04-15T14:34:46.124Z,3.10
2023-04-15T14:37:12.417Z,3.97
2023-04-15T14:39:38.746Z,3.13
2023-04-15T14:42:05.059Z,4.30
2023-04-15T14:47:02.642Z,5.72
2023-04-15T14:49:29.012Z,3.75
2023-04-15T14:51:55.270Z,3.78
2023-04-15T14:54:22.492Z,5.38
2023-04-15T14:56:49.043Z,2.97
2023-04-15T14:59:15.313Z,3.40
2023-04-15T15:01:41.745Z,2.53
2023-04-15T15:04:10.208Z,2.45
2023-04-15T15:06:36.690Z,2.63
2023-04-15T15:09:03.325Z,2.75
2023-04-15T15:11:30.004Z,4.50
2023-04-15T15:13:56.434Z,2.85
2023-04-15T15:16:22.826Z,3.17
2023-04-15T15:18:50.129Z,2.33
2023-04-15T15:21:16.731Z,3.53
2023-04-15T15:23:43.137Z,1.92
2023-04-15T15:26:09.665Z,3.28
2023-04-15T15:28:36.072Z,2.75
2023-04-15T15:31:02.370Z,2.78
2023-04-15T15:33:30.220Z,3.03
2023-04-15T15:35:57.776Z,3.10
2023-04-15T15:38:24.141Z,2.60
2023-04-15T15:40:50.587Z,2.30
2023-04-15T15:43:17.070Z,3.97
2023-04-15T15:45:43.416Z,3.60
2023-04-15T15:48:09.949Z,2.95
2023-04-15T15:50:36.259Z,3.83
2023-04-15T15:53:02.584Z,4.22
2023-04-15T15:55:28.880Z,4.03
2023-04-15T15:57:55.180Z,3.72
2023-04-15T16:00:21.464Z,4.75
2023-04-15T16:05:17.311Z,4.35
2023-04-15T16:07:43.654Z,3.75
2023-04-15T16:10:10.223Z,3.92
2023-04-15T16:12:36.690Z,4.03
2023-04-15T16:15:03.091Z,4.70
2023-04-15T16:17:29.419Z,5.63
2023-04-15T16:19:59.294Z,3.58
2023-04-15T16:22:27.184Z,3.53
2023-04-15T16:24:53.646Z,4.32
2023-04-15T16:27:20.075Z,5.47
2023-04-15T16:29:46.400Z,5.88
2023-04-15T16:32:12.854Z,4.30
2023-04-15T16:34:39.239Z,4.50
2023-04-15T16:37:05.533Z,3.20
2023-04-15T16:39:32.178Z,4.80
2023-04-15T16:41:58.860Z,3.95
2023-04-15T16:44:25.903Z,5.18
2023-04-15T16:46:52.206Z,4.32
2023-04-15T16:49:18.510Z,5.75
2023-04-15T16:51:44.904Z,5.13
2023-04-15T16:54:11.258Z,6.93
2023-04-15T16:56:37.537Z,5.70
2023-04-15T16:59:04.230Z,6.38
2023-04-15T17:01:30.856Z,6.65
2023-04-15T17:03:57.297Z,6.60
2023-04-15T17:06:23.721Z,5.28
2023-04-15T17:08:50.165Z,6.07
2023-04-15T17:11:16.548Z,7.28
2023-04-15T17:13:42.840Z,6.45
2023-04-15T17:16:09.501Z,7.63
2023-04-15T17:18:36.138Z,5.90
2023-04-15T17:21:02.447Z,6.35
2023-04-15T17:23:28.873Z,6.45
2023-04-15T17:25:55.203Z,6.50
2023-04-15T17:28:21.564Z,7.63
2023-04-15T17:30:48.031Z,9.02
2023-04-15T17:33:50.531Z,8.00
2023-04-15T17:36:00.668Z,8.80
2023-04-15T17:38:27.168Z,7.00
2023-04-15T17:40:53.620Z,8.00
2023-04-15T17:43:20.027Z,8.10
2023-04-15T17:45:46.349Z,8.43
2023-04-15T17:48:13.487Z,8.25
2023-04-15T17:50:39.929Z,7.85
2023-04-15T17:53:06.256Z,8.52
2023-04-15T17:55:32.912Z,8.32
2023-04-15T17:58:00.269Z,8.85
2023-04-15T18:00:26.555Z,7.50
2023-04-15T18:02:52.990Z,7.10
2023-04-15T18:05:19.599Z,7.65
2023-04-15T18:07:46.091Z,6.43
2023-04-15T18:10:12.519Z,8.93
2023-04-15T18:12:38.841Z,7.70
2023-04-15T18:15:05.696Z,9.25
2023-04-15T18:17:32.099Z,9.50
2023-04-15T18:19:58.406Z,8.25
2023-04-15T18:22:24.739Z,9.23
2023-04-15T18:24:51.147Z,6.53
2023-04-15T18:27:17.903Z,7.82
2023-04-15T18:29:44.231Z,6.82
2023-04-15T18:32:10.543Z,7.15
2023-04-15T18:34:37.125Z,7.47
2023-04-15T18:37:03.640Z,7.25
2023-04-15T18:39:30.612Z,8.63
2023-04-15T18:41:57.100Z,6.78
2023-04-15T18:44:23.510Z,5.68
2023-04-15T18:46:49.851Z,6.25
2023-04-15T18:49:16.148Z,6.20
2023-04-15T18:51:42.572Z,6.90
2023-04-15T18:54:08.864Z,7.63
2023-04-15T18:56:35.228Z,7.10
2023-04-15T18:59:28.090Z,6.43
2023-04-15T19:01:48.621Z,6.30
2023-04-15T19:04:15.212Z,6.20
2023-04-15T19:06:41.651Z,5.93
2023-04-15T19:09:08.322Z,6.75
2023-04-15T19:11:34.593Z,5.40
2023-04-15T19:14:01.050Z,6.13
2023-04-15T19:16:27.545Z,8.13
2023-04-15T19:18:53.913Z,6.32
2023-04-15T19:21:20.300Z,7.72
2023-04-15T19:23:47.054Z,5.68
2023-04-15T19:26:13.824Z,7.10
2023-04-15T19:28:40.105Z,7.82
2023-04-15T19:31:06.570Z,5.40
2023-04-15T19:33:33.252Z,6.75
2023-04-15T19:36:04.670Z,6.05
2023-04-15T19:38:31.820Z,6.63
2023-04-15T19:40:59.546Z,6.32
2023-04-15T19:43:25.902Z,5.45
2023-04-15T19:45:52.560Z,7.35
2023-04-15T19:48:19.201Z,6.90
2023-04-15T19:50:45.614Z,7.80
2023-04-15T19:53:12.174Z,7.90
2023-04-15T19:55:38.609Z,5.78
2023-04-15T19:58:04.900Z,7.20
2023-04-15T20:00:31.399Z,7.30
2023-04-15T20:02:58.155Z,14.55
2023-04-15T20:05:24.614Z,7.90
2023-04-15T20:07:50.961Z,6.18
2023-04-15T20:10:18.533Z,6.07
2023-04-15T20:12:51.114Z,6.70
2023-04-15T20:15:18.866Z,6.00
2023-04-15T20:17:45.169Z,4.75
2023-04-15T20:20:11.531Z,4.85
2023-04-15T20:22:37.836Z,5.40
2023-04-15T20:25:04.533Z,5.40
2023-04-15T20:27:30.902Z,5.15
2023-04-15T20:29:57.332Z,4.88
2023-04-15T20:32:23.650Z,5.45
2023-04-15T20:34:50.451Z,5.55
2023-04-15T20:37:16.793Z,4.78
2023-04-15T20:39:43.238Z,6.85
2023-04-15T20:42:09.553Z,6.85
2023-04-15T20:44:39.484Z,5.38
2023-04-15T20:47:06.538Z,6.68
2023-04-15T20:49:34.598Z,5.07
2023-04-15T20:52:01.206Z,5.78
2023-04-15T20:54:27.542Z,4.95
2023-04-15T20:56:53.904Z,6.40
2023-04-15T20:59:20.251Z,6.10
2023-04-15T21:01:46.593Z,5.85
2023-04-15T21:04:12.915Z,4.30
2023-04-15T21:06:39.188Z,5.72
2023-04-15T21:09:05.921Z,6.72
2023-04-15T21:11:53.335Z,5.88
2023-04-15T21:14:19.107Z,4.93
2023-04-15T21:16:45.400Z,4.68
2023-04-15T21:19:11.818Z,6.13
2023-04-15T21:21:38.145Z,5.85
2023-04-15T21:24:04.539Z,6.25
2023-04-15T21:26:30.851Z,6.20
2023-04-15T21:28:57.164Z,6.20
2023-04-15T21:31:23.552Z,6.03
2023-04-15T21:33:49.944Z,6.30
2023-04-15T21:36:16.253Z,6.53
2023-04-15T21:38:42.558Z,5.68
2023-04-15T21:41:09.031Z,5.10
2023-04-15T21:43:38.513Z,7.00
2023-04-15T21:46:22.223Z,5.07
2023-04-15T21:48:51.309Z,4.93
2023-04-15T21:51:17.585Z,5.22
2023-04-15T21:53:43.877Z,7.00
2023-04-15T21:56:10.276Z,9.15
2023-04-15T21:58:36.613Z,6.00
2023-04-15T22:01:04.049Z,6.78
2023-04-15T22:03:32.102Z,7.55
2023-04-15T22:06:04.981Z,5.72
2023-04-15T22:08:36.098Z,6.07
2023-04-15T22:13:44.358Z,6.45
2023-04-15T22:16:10.686Z,6.85
2023-04-15T22:18:37.101Z,6.38
2023-04-15T22:21:03.617Z,5.57
2023-04-15T22:23:29.915Z,6.88
2023-04-15T22:25:56.617Z,5.57
2023-04-15T22:28:22.909Z,6.70
2023-04-15T22:30:49.281Z,6.18
2023-04-15T22:33:15.596Z,6.85
2023-04-15T22:35:41.904Z,6.97
2023-04-15T22:38:08.172Z,6.35
2023-04-15T22:40:34.527Z,7.30
2023-04-15T22:43:00.893Z,7.82
2023-04-15T22:45:27.178Z,6.43
2023-04-15T22:47:53.630Z,6.38
2023-04-15T22:50:20.068Z,5.93
2023-04-15T22:52:46.397Z,5.45
2023-04-15T22:55:13.009Z,6.78
2023-04-15T22:57:39.495Z,5.88
2023-04-15T23:00:06.735Z,6.90
2023-04-15T23:02:33.302Z,7.97
2023-04-15T23:04:59.953Z,7.10
2023-04-15T23:07:28.725Z,5.95
2023-04-15T23:09:55.020Z,5.93
2023-04-15T23:12:21.406Z,6.80
2023-04-15T23:14:47.721Z,7.55
2023-04-15T23:17:14.036Z,7.50
2023-04-15T23:19:40.320Z,7.00
2023-04-15T23:22:06.600Z,8.63
2023-04-15T23:24:32.877Z,7.53
2023-04-15T23:26:59.202Z,7.82
2023-04-15T23:29:25.530Z,7.72
2023-04-15T23:31:51.916Z,7.10
2023-04-15T23:34:18.216Z,6.80
2023-04-15T23:36:44.573Z,9.23
2023-04-15T23:39:10.977Z,9.75
2023-04-15T23:41:37.456Z,7.55
2023-04-15T23:44:03.840Z,7.55
2023-04-15T23:46:30.276Z,8.15
2023-04-15T23:48:56.638Z,7.50
2023-04-15T23:51:22.972Z,7.32
2023-04-15T23:53:49.408Z,7.78
2023-04-15T23:56:15.685Z,6.40
2023-04-15T23:58:42.108Z,8.02
